Time;durP1;ratioP1;P1;durP2;ratioP2;P2;SDS_P1;SDS_P2;PMS_P1;PMS_P2;Temp;Humidity;BMP_temperature;BMP_pressure;BME280_temperature;BME280_humidity;BME280_pressure;Samples;Min_cycle;Max_cycle;Signal;HPM_P1;HPM_P2
2021/12/27 10:31:25;;;;;;;2.28;1.27;;;11.90;99.90;;;;;;5672172;23;20382;-80
2021/12/27 10:33:51;;;;;;;3.20;1.42;;;11.80;99.90;;;;;;4861521;29;20038;-81
2021/12/27 10:36:16;;;;;;;1.85;1.58;;;11.70;99.90;;;;;;4861714;29;20052;-81
2021/12/27 10:38:43;;;;;;;4.32;2.10;;;11.60;99.90;;;;;;4861751;29;20030;-82
2021/12/27 10:41:11;;;;;;;2.78;1.60;;;11.70;99.90;;;;;;4844854;29;20033;-81
2021/12/27 10:43:50;;;;;;;2.90;1.55;;;11.70;99.90;;;;;;4844744;29;20037;-78
2021/12/27 10:46:21;;;;;;;3.08;1.38;;;11.70;99.90;;;;;;4861476;29;20037;-82
2021/12/27 10:48:55;;;;;;;2.15;1.50;;;11.70;99.90;;;;;;4861411;29;20086;-80
2021/12/27 10:51:21;;;;;;;5.22;1.52;;;11.60;99.90;;;;;;4861217;29;21053;-80
2021/12/27 10:54:09;;;;;;;7.78;1.83;;;11.70;99.90;;;;;;4861193;29;20551;-79
2021/12/27 10:56:53;;;;;;;5.60;2.33;;;11.70;99.90;;;;;;4861291;29;20033;-81
2021/12/27 10:59:20;;;;;;;4.82;2.17;;;11.80;99.90;;;;;;4861251;29;20028;-79
2021/12/27 11:01:48;;;;;;;3.75;2.10;;;11.80;99.90;;;;;;4861523;29;20043;-81
2021/12/27 11:04:16;;;;;;;2.83;1.80;;;11.90;99.90;;;;;;4861519;29;20045;-81
2021/12/27 11:06:42;;;;;;;2.80;1.90;;;11.90;99.90;;;;;;4861218;29;20022;-81
2021/12/27 11:09:09;;;;;;;4.80;2.20;;;11.90;99.90;;;;;;4861815;29;20094;-77
2021/12/27 11:11:35;;;;;;;3.08;2.38;;;11.90;99.90;;;;;;4860681;29;20032;-74
2021/12/27 11:14:01;;;;;;;11.68;2.70;;;11.80;99.90;;;;;;4861316;29;20038;-80
2021/12/27 11:16:28;;;;;;;5.00;2.90;;;11.80;99.90;;;;;;4861230;29;20100;-80
2021/12/27 11:18:58;;;;;;;6.97;3.03;;;11.90;99.90;;;;;;4860877;29;20040;-81
2021/12/27 11:21:37;;;;;;;7.07;2.35;;;11.90;99.90;;;;;;4860970;29;20036;-80
2021/12/27 11:24:05;;;;;;;3.90;2.42;;;11.90;99.90;;;;;;4860685;29;20037;-81
2021/12/27 11:26:33;;;;;;;6.80;2.97;;;12.00;99.90;;;;;;4860761;29;20382;-80
2021/12/27 11:29:20;;;;;;;4.32;2.78;;;12.10;99.90;;;;;;4861285;29;20033;-80
2021/12/27 11:31:52;;;;;;;3.00;2.70;;;12.30;99.90;;;;;;4861245;29;20057;-77
2021/12/27 11:34:19;;;;;;;4.03;2.65;;;12.50;99.90;;;;;;4861369;29;20125;-81
2021/12/27 11:36:48;;;;;;;5.10;3.17;;;12.60;99.90;;;;;;4860695;29;20087;-78
2021/12/27 11:39:30;;;;;;;8.43;3.33;;;12.70;99.90;;;;;;4860375;29;20024;-81
2021/12/27 11:42:17;;;;;;;3.60;2.97;;;12.80;99.90;;;;;;4860592;29;20033;-82
2021/12/27 11:44:49;;;;;;;5.22;3.03;;;12.80;99.90;;;;;;4857638;29;20498;-81
2021/12/27 11:47:32;;;;;;;4.05;3.35;;;12.80;99.90;;;;;;4854125;29;20471;-81
2021/12/27 11:50:07;;;;;;;4.57;3.83;;;12.80;99.90;;;;;;4840721;29;20559;-81
2021/12/27 11:52:42;;;;;;;4.70;3.40;;;12.80;99.90;;;;;;4840779;29;20539;-82
2021/12/27 11:55:14;;;;;;;4.47;3.53;;;12.80;99.90;;;;;;4853302;29;20026;-82
2021/12/27 11:57:43;;;;;;;8.35;3.40;;;12.80;99.90;;;;;;4853888;29;20596;-80
2021/12/27 12:00:17;;;;;;;4.32;3.20;;;12.80;99.90;;;;;;4853883;29;20077;-82
2021/12/27 12:02:49;;;;;;;5.10;3.35;;;12.80;99.90;;;;;;4859938;29;20034;-82
2021/12/27 12:05:42;;;;;;;3.85;3.35;;;12.80;99.90;;;;;;4859709;29;20109;-82
2021/12/27 12:08:10;;;;;;;5.57;3.55;;;12.80;99.90;;;;;;4860708;29;20040;-79
2021/12/27 12:10:38;;;;;;;7.68;3.92;;;12.80;99.90;;;;;;4860409;29;20112;-81
2021/12/27 12:13:20;;;;;;;12.57;4.13;;;12.80;99.90;;;;;;4860809;29;20025;-82
2021/12/27 12:15:55;;;;;;;7.85;3.70;;;12.70;99.90;;;;;;4860106;29;20447;-82
2021/12/27 12:18:21;;;;;;;5.88;3.72;;;12.70;99.90;;;;;;4859824;29;20518;-82
2021/12/27 12:20:47;;;;;;;7.13;4.40;;;12.60;99.90;;;;;;4859957;29;20041;-81
2021/12/27 12:23:12;;;;;;;9.13;4.90;;;12.50;99.90;;;;;;4860705;29;20033;-78
2021/12/27 12:25:38;;;;;;;14.52;6.40;;;12.40;99.90;;;;;;4860335;29;20038;-81
2021/12/27 12:28:13;;;;;;;12.05;6.95;;;12.30;99.90;;;;;;4859188;29;20041;-81
2021/12/27 12:30:47;;;;;;;17.67;8.43;;;12.30;99.90;;;;;;4859735;29;20505;-81
2021/12/27 12:33:15;;;;;;;12.68;8.02;;;12.20;99.90;;;;;;4859564;29;20057;-80
2021/12/27 12:35:45;;;;;;;9.45;6.28;;;12.10;99.90;;;;;;4859487;29;20017;-77
2021/12/27 12:38:35;;;;;;;12.85;7.22;;;12.10;99.90;;;;;;4860087;29;20038;-81
2021/12/27 12:41:12;;;;;;;10.45;6.00;;;12.00;99.90;;;;;;4857695;29;20034;-81
2021/12/27 12:43:51;;;;;;;6.38;4.90;;;11.90;99.90;;;;;;4856990;29;20069;-79
2021/12/27 12:46:45;;;;;;;9.90;5.05;;;11.90;99.90;;;;;;4859725;29;20101;-81
2021/12/27 12:49:19;;;;;;;6.57;4.78;;;11.90;99.90;;;;;;4858039;29;20046;-79
2021/12/27 12:52:06;;;;;;;6.82;4.63;;;11.90;99.90;;;;;;4859555;29;20021;-80
2021/12/27 12:54:38;;;;;;;21.38;11.13;;;11.90;99.90;;;;;;4860260;29;20032;-75
2021/12/27 12:57:12;;;;;;;17.42;11.13;;;11.90;99.90;;;;;;4860099;29;20033;-80
2021/12/27 12:59:38;;;;;;;18.10;11.82;;;11.80;99.90;;;;;;4859938;29;20021;-83
2021/12/27 13:02:14;;;;;;;13.45;8.80;;;11.80;99.90;;;;;;4859835;29;20390;-82
2021/12/27 13:04:39;;;;;;;11.88;8.30;;;11.80;99.90;;;;;;4859745;29;20037;-78
2021/12/27 13:07:05;;;;;;;15.15;9.82;;;11.80;99.90;;;;;;4859501;29;20030;-75
2021/12/27 13:09:51;;;;;;;13.05;9.68;;;11.80;99.90;;;;;;4859243;29;20068;-80
2021/12/27 13:12:25;;;;;;;11.00;8.05;;;11.80;99.90;;;;;;4859470;29;20061;-77
2021/12/27 13:14:52;;;;;;;10.10;7.65;;;11.80;99.90;;;;;;4859375;29;20077;-78
2021/12/27 13:17:23;;;;;;;11.05;7.82;;;11.80;99.90;;;;;;4859284;29;20458;-81
2021/12/27 13:20:12;;;;;;;;;;;11.80;99.90;;;;;;4858884;29;20097;-78
2021/12/27 13:22:41;;;;;;;56.70;30.23;;;11.80;99.90;;;;;;4852895;29;19920;-80
2021/12/27 13:25:08;;;;;;;41.78;25.85;;;11.90;99.90;;;;;;4859088;29;20033;-78
2021/12/27 13:27:33;;;;;;;17.98;9.50;;;12.00;99.90;;;;;;4858506;29;20029;-81
2021/12/27 13:30:13;;;;;;;10.95;7.78;;;12.00;99.90;;;;;;4850539;29;20372;-80
2021/12/27 13:32:40;;;;;;;11.73;7.47;;;12.00;99.90;;;;;;4845514;29;20054;-80
2021/12/27 13:35:06;;;;;;;11.27;7.80;;;12.00;99.90;;;;;;4839782;29;20027;-79
2021/12/27 13:37:36;;;;;;;22.75;12.68;;;12.00;99.90;;;;;;4850229;29;20053;-78
2021/12/27 13:40:13;;;;;;;17.48;10.93;;;11.90;99.90;;;;;;4858632;29;20431;-79
2021/12/27 13:42:43;;;;;;;9.65;7.68;;;11.90;99.90;;;;;;4842684;29;20029;-81
2021/12/27 13:45:15;;;;;;;14.02;7.15;;;11.80;99.90;;;;;;4858748;29;20033;-75
2021/12/27 13:47:52;;;;;;;11.48;7.88;;;11.70;99.90;;;;;;4858448;29;20025;-78
2021/12/27 13:50:28;;;;;;;11.38;7.43;;;11.70;99.90;;;;;;4858422;29;20069;-78
2021/12/27 13:52:56;;;;;;;8.88;6.60;;;11.60;99.90;;;;;;4858698;29;20436;-73
2021/12/27 13:55:27;;;;;;;9.35;7.20;;;11.60;99.90;;;;;;4857835;29;20089;-76
2021/12/27 13:57:53;;;;;;;17.60;8.88;;;11.60;99.90;;;;;;4856564;29;20104;-76
2021/12/27 14:00:30;;;;;;;11.85;7.82;;;11.60;99.90;;;;;;4855735;29;20057;-77
2021/12/27 14:02:58;;;;;;;16.30;9.32;;;11.50;99.90;;;;;;4845657;29;20046;-77
2021/12/27 14:05:30;;;;;;;71.30;31.52;;;11.50;99.90;;;;;;4850808;29;20029;-78
2021/12/27 14:08:10;;;;;;;138.10;65.43;;;11.50;99.90;;;;;;4862765;29;20040;-78
2021/12/27 14:10:36;;;;;;;84.78;38.83;;;11.50;99.90;;;;;;4862343;29;20045;-80
2021/12/27 14:13:02;;;;;;;70.82;36.92;;;11.50;99.90;;;;;;4861745;29;20154;-79
2021/12/27 14:15:32;;;;;;;75.20;39.92;;;11.40;99.90;;;;;;4858581;29;20522;-80
2021/12/27 14:18:12;;;;;;;40.08;23.45;;;11.40;99.90;;;;;;4861959;29;20032;-81
2021/12/27 14:20:38;;;;;;;20.73;11.43;;;11.30;99.90;;;;;;4859729;29;20072;-74
2021/12/27 14:23:12;;;;;;;20.38;10.32;;;11.30;99.90;;;;;;4861926;29;20510;-78
2021/12/27 14:25:38;;;;;;;12.80;9.88;;;11.20;99.90;;;;;;4861008;29;20025;-78
2021/12/27 14:28:11;;;;;;;12.77;8.13;;;11.20;99.90;;;;;;4861878;29;20026;-74
2021/12/27 14:30:43;;;;;;;13.05;8.70;;;11.20;99.90;;;;;;4861452;29;20394;-77
2021/12/27 14:33:16;;;;;;;18.55;10.73;;;11.10;99.90;;;;;;4861112;29;20132;-75
2021/12/27 14:35:51;;;;;;;16.00;10.75;;;11.10;99.90;;;;;;4861348;29;20084;-76
2021/12/27 14:38:27;;;;;;;23.40;12.40;;;11.10;99.90;;;;;;4860546;29;20108;-75
2021/12/27 14:41:02;;;;;;;19.95;12.95;;;11.10;99.90;;;;;;4861126;29;20116;-74
2021/12/27 14:43:33;;;;;;;18.17;11.98;;;11.10;99.90;;;;;;4861902;29;20500;-71
2021/12/27 14:46:00;;;;;;;22.42;13.07;;;11.10;99.90;;;;;;4860891;29;20125;-76
2021/12/27 14:48:26;;;;;;;32.75;19.50;;;11.00;99.90;;;;;;4860853;29;20446;-74
2021/12/27 14:50:53;;;;;;;38.38;22.10;;;11.00;99.90;;;;;;4861357;29;20471;-75
2021/12/27 14:53:19;;;;;;;31.52;16.90;;;11.00;99.90;;;;;;4860861;29;20109;-76
2021/12/27 14:55:46;;;;;;;22.58;15.10;;;10.90;99.90;;;;;;4861386;29;20403;-75
2021/12/27 14:58:12;;;;;;;41.33;21.98;;;10.90;99.90;;;;;;4861336;29;20425;-75
2021/12/27 15:00:44;;;;;;;80.57;41.00;;;10.90;99.90;;;;;;4861224;29;20017;-71
2021/12/27 15:03:10;;;;;;;77.40;37.90;;;10.80;99.90;;;;;;4860893;29;20037;-73
2021/12/27 15:05:36;;;;;;;61.95;33.08;;;10.80;99.90;;;;;;4861100;29;20026;-75
2021/12/27 15:08:02;;;;;;;61.30;31.70;;;10.70;99.90;;;;;;4860961;29;20025;-76
2021/12/27 15:10:28;;;;;;;40.28;23.35;;;10.70;99.90;;;;;;4860719;29;20474;-76
2021/12/27 15:12:54;;;;;;;29.52;19.50;;;10.70;99.90;;;;;;4861139;29;20033;-76
2021/12/27 15:15:19;;;;;;;35.00;22.05;;;10.70;99.90;;;;;;4860342;29;20078;-75
2021/12/27 15:17:51;;;;;;;36.60;21.83;;;10.60;99.90;;;;;;4859497;29;20062;-76
2021/12/27 15:20:18;;;;;;;29.48;18.65;;;10.60;99.90;;;;;;4860477;29;20435;-76
2021/12/27 15:22:44;;;;;;;36.33;21.17;;;10.60;99.90;;;;;;4851400;29;20144;-74
2021/12/27 15:25:10;;;;;;;37.50;19.08;;;10.60;99.90;;;;;;4841342;29;20472;-76
2021/12/27 15:27:36;;;;;;;42.90;17.63;;;10.50;99.90;;;;;;4859602;29;20037;-74
2021/12/27 15:30:05;;;;;;;27.67;15.90;;;10.50;99.90;;;;;;4853799;29;20041;-77
2021/12/27 15:32:31;;;;;;;24.45;13.30;;;10.40;99.90;;;;;;4841537;29;20046;-73
2021/12/27 15:34:57;;;;;;;35.05;14.25;;;10.40;99.90;;;;;;4842379;29;20624;-77
2021/12/27 15:37:23;;;;;;;28.67;15.25;;;10.30;99.90;;;;;;4841733;29;20030;-74
2021/12/27 15:39:49;;;;;;;23.83;12.85;;;10.30;99.90;;;;;;4842587;29;20489;-77
2021/12/27 15:42:14;;;;;;;21.77;13.30;;;10.30;99.90;;;;;;4850266;29;20025;-74
2021/12/27 15:44:40;;;;;;;22.45;14.38;;;10.30;99.90;;;;;;4858271;29;20109;-78
2021/12/27 15:47:06;;;;;;;30.00;16.75;;;10.30;99.90;;;;;;4857190;29;20040;-77
2021/12/27 15:49:32;;;;;;;33.92;19.48;;;10.30;99.90;;;;;;4852436;29;20044;-77
2021/12/27 15:51:58;;;;;;;43.30;23.45;;;10.20;99.90;;;;;;4841735;29;20030;-78
2021/12/27 15:54:23;;;;;;;26.77;17.20;;;10.20;99.90;;;;;;4841462;29;20057;-77
2021/12/27 15:56:49;;;;;;;25.90;16.90;;;10.20;99.90;;;;;;4854362;29;20030;-76
2021/12/27 15:59:15;;;;;;;27.05;17.73;;;10.20;99.90;;;;;;4850898;29;20076;-75
2021/12/27 16:01:41;;;;;;;25.40;16.85;;;10.20;99.90;;;;;;4844376;29;20475;-75
2021/12/27 16:04:12;;;;;;;31.30;17.58;;;10.20;99.90;;;;;;4850598;29;20041;-76
2021/12/27 16:06:37;;;;;;;26.63;15.13;;;10.20;99.90;;;;;;4860714;29;20057;-76
2021/12/27 16:09:04;;;;;;;27.88;15.20;;;10.20;99.90;;;;;;4859420;29;20037;-75
2021/12/27 16:11:29;;;;;;;65.22;37.38;;;10.20;99.90;;;;;;4859317;29;20423;-71
2021/12/27 16:13:55;;;;;;;107.97;58.03;;;10.20;99.90;;;;;;4857727;29;20045;-71
2021/12/27 16:16:26;;;;;;;41.47;25.98;;;10.20;99.90;;;;;;4856270;29;20048;-76
2021/12/27 16:18:53;;;;;;;36.05;21.60;;;10.20;99.90;;;;;;4846807;29;20467;-74
2021/12/27 16:21:19;;;;;;;29.35;19.25;;;10.20;99.90;;;;;;4852724;29;20112;-73
2021/12/27 16:23:45;;;;;;;30.13;17.27;;;10.20;99.90;;;;;;4857904;29;20117;-72
2021/12/27 16:26:11;;;;;;;30.17;18.48;;;10.20;99.90;;;;;;4841754;29;20497;-71
2021/12/27 16:28:37;;;;;;;34.80;19.98;;;10.30;99.90;;;;;;4859180;29;20053;-72
2021/12/27 16:31:03;;;;;;;31.60;18.83;;;10.30;99.90;;;;;;4856743;29;20062;-74
2021/12/27 16:33:28;;;;;;;46.35;20.63;;;10.30;99.90;;;;;;4859547;29;20053;-73
2021/12/27 16:35:57;;;;;;;30.45;19.08;;;10.30;99.90;;;;;;4859090;29;20032;-73
2021/12/27 16:38:24;;;;;;;44.63;23.98;;;10.30;99.90;;;;;;4859307;29;20116;-76
2021/12/27 16:40:50;;;;;;;45.15;21.73;;;10.30;99.90;;;;;;4858776;29;20056;-76
2021/12/27 16:43:16;;;;;;;32.38;20.10;;;10.20;99.90;;;;;;4859231;29;20533;-76
2021/12/27 16:45:43;;;;;;;37.75;21.90;;;10.30;99.90;;;;;;4858873;29;21055;-77
2021/12/27 16:48:08;;;;;;;39.75;20.30;;;10.30;99.90;;;;;;4858750;29;20041;-76
2021/12/27 16:50:39;;;;;;;32.47;19.30;;;10.30;99.90;;;;;;4859430;29;20053;-74
2021/12/27 16:53:07;;;;;;;33.33;16.90;;;10.30;99.90;;;;;;4859372;29;20075;-71
2021/12/27 16:55:33;;;;;;;29.65;16.10;;;10.30;99.90;;;;;;4857995;29;20478;-75
2021/12/27 16:57:59;;;;;;;24.10;15.30;;;10.30;99.90;;;;;;4858219;29;20034;-77
2021/12/27 17:00:28;;;;;;;27.75;18.27;;;10.30;99.90;;;;;;4857536;29;20098;-71
2021/12/27 17:02:59;;;;;;;34.80;22.33;;;10.30;99.90;;;;;;4859440;29;20538;-77
2021/12/27 17:05:26;;;;;;;41.35;24.13;;;10.30;99.90;;;;;;4859449;29;20108;-77
2021/12/27 17:07:52;;;;;;;28.63;21.77;;;10.30;99.90;;;;;;4859068;29;20017;-75
2021/12/27 17:10:18;;;;;;;28.58;19.90;;;10.30;99.90;;;;;;4853913;29;20100;-75
2021/12/27 17:12:44;;;;;;;24.35;16.88;;;10.30;99.90;;;;;;4849376;29;20024;-73
2021/12/27 17:15:11;;;;;;;30.88;19.95;;;10.30;99.90;;;;;;4846091;29;20030;-72
2021/12/27 17:17:37;;;;;;;28.38;19.77;;;10.30;99.90;;;;;;4846738;29;20057;-69
2021/12/27 17:20:04;;;;;;;39.55;19.38;;;10.30;99.90;;;;;;4846246;29;20018;-73
2021/12/27 17:22:29;;;;;;;33.92;20.35;;;10.30;99.90;;;;;;4847523;29;20578;-71
2021/12/27 17:24:55;;;;;;;28.73;18.15;;;10.30;99.90;;;;;;4849760;29;20117;-76
2021/12/27 17:27:21;;;;;;;29.63;18.55;;;10.30;99.90;;;;;;4849309;29;20101;-72
2021/12/27 17:29:46;;;;;;;26.90;17.42;;;10.20;99.90;;;;;;4849295;29;20033;-73
2021/12/27 17:32:12;;;;;;;32.03;16.45;;;10.20;99.90;;;;;;4851544;29;20050;-72
2021/12/27 17:34:41;;;;;;;26.73;17.92;;;10.20;99.90;;;;;;4850093;29;20082;-72
2021/12/27 17:37:07;;;;;;;30.55;19.77;;;10.20;99.90;;;;;;4849814;29;20448;-75
2021/12/27 17:39:33;;;;;;;39.05;22.90;;;10.20;99.90;;;;;;4861877;29;20041;-76
2021/12/27 17:42:03;;;;;;;31.67;18.77;;;10.20;99.90;;;;;;4862203;29;20043;-75
2021/12/27 17:44:30;;;;;;;47.03;21.95;;;10.20;99.90;;;;;;4861450;29;20449;-75
2021/12/27 17:46:56;;;;;;;33.30;20.88;;;10.20;99.90;;;;;;4861808;29;20028;-74
2021/12/27 17:49:23;;;;;;;29.65;20.00;;;10.20;99.90;;;;;;4862115;29;20057;-75
2021/12/27 17:51:49;;;;;;;31.45;21.60;;;10.20;99.90;;;;;;4861931;29;20026;-77
2021/12/27 17:54:15;;;;;;;42.78;25.98;;;10.20;99.90;;;;;;4862024;29;20519;-75
2021/12/27 17:56:41;;;;;;;44.72;24.42;;;10.20;99.90;;;;;;4861735;29;20035;-75
2021/12/27 17:59:07;;;;;;;44.97;24.08;;;10.20;99.90;;;;;;4861799;29;20022;-76
2021/12/27 18:01:32;;;;;;;33.13;21.20;;;10.20;99.90;;;;;;4861944;29;20029;-76
2021/12/27 18:04:01;;;;;;;33.13;22.58;;;10.20;99.90;;;;;;4861591;29;20037;-73
2021/12/27 18:06:29;;;;;;;34.33;22.90;;;10.20;99.90;;;;;;4862173;29;20411;-74
2021/12/27 18:08:55;;;;;;;38.05;22.73;;;10.20;99.90;;;;;;4861733;29;20025;-75
2021/12/27 18:11:21;;;;;;;39.78;24.05;;;10.20;99.90;;;;;;4861526;29;20510;-71
2021/12/27 18:13:47;;;;;;;45.65;21.42;;;10.20;99.90;;;;;;4862152;29;20097;-74
2021/12/27 18:16:14;;;;;;;48.97;21.65;;;10.20;99.90;;;;;;4862192;29;20387;-73
2021/12/27 18:18:39;;;;;;;36.20;21.42;;;10.20;99.90;;;;;;4861897;29;20514;-77
2021/12/27 18:21:06;;;;;;;43.53;25.33;;;10.10;99.90;;;;;;4861613;29;20037;-71
2021/12/27 18:23:33;;;;;;;44.30;27.15;;;10.10;99.90;;;;;;4861952;29;20041;-73
2021/12/27 18:25:58;;;;;;;44.63;22.25;;;10.10;99.90;;;;;;4862076;29;20104;-75
2021/12/27 18:28:24;;;;;;;40.58;22.80;;;10.10;99.90;;;;;;4861439;29;20117;-73
2021/12/27 18:30:49;;;;;;;49.08;25.65;;;10.10;99.90;;;;;;4862292;29;20022;-71
2021/12/27 18:33:15;;;;;;;38.65;25.40;;;10.10;99.90;;;;;;4861924;29;20061;-73
2021/12/27 18:35:42;;;;;;;42.05;24.05;;;10.10;99.90;;;;;;4861922;29;20037;-72
2021/12/27 18:38:08;;;;;;;52.70;24.60;;;10.10;99.90;;;;;;4862155;29;20029;-73
2021/12/27 18:40:34;;;;;;;46.85;25.23;;;10.10;99.90;;;;;;4861554;29;20022;-74
2021/12/27 18:43:00;;;;;;;46.38;23.90;;;10.10;99.90;;;;;;4861581;29;20485;-74
2021/12/27 18:45:26;;;;;;;34.97;22.55;;;10.10;99.90;;;;;;4861570;29;20041;-73
2021/12/27 18:47:52;;;;;;;37.13;24.08;;;10.10;99.90;;;;;;4862064;29;20029;-69
2021/12/27 18:50:18;;;;;;;41.55;22.42;;;10.10;99.90;;;;;;4861101;29;20120;-71
2021/12/27 18:52:44;;;;;;;27.58;17.48;;;10.10;99.90;;;;;;4861856;29;20105;-70
2021/12/27 18:55:15;;;;;;;25.40;16.13;;;10.10;99.90;;;;;;4861982;29;20391;-72
2021/12/27 18:57:42;;;;;;;23.55;15.30;;;10.00;99.90;;;;;;4845159;29;20026;-71
2021/12/27 19:00:10;;;;;;;24.65;13.13;;;10.00;99.90;;;;;;4861839;29;20029;-71
2021/12/27 19:02:36;;;;;;;39.42;29.73;;;10.00;99.90;;;;;;4861751;29;20037;-70
2021/12/27 19:05:03;;;;;;;25.88;15.10;;;10.00;99.90;;;;;;4861848;29;20048;-73
2021/12/27 19:07:29;;;;;;;31.40;16.23;;;9.90;99.90;;;;;;4861911;29;20017;-73
2021/12/27 19:09:54;;;;;;;28.33;13.95;;;9.90;99.90;;;;;;4860386;29;20136;-72
2021/12/27 19:12:20;;;;;;;21.60;12.93;;;9.90;99.90;;;;;;4861368;29;20493;-71
2021/12/27 19:14:46;;;;;;;32.38;22.17;;;9.90;99.90;;;;;;4861398;29;20065;-72
2021/12/27 19:17:12;;;;;;;18.05;11.38;;;10.00;99.90;;;;;;4861422;29;20033;-74
2021/12/27 19:19:38;;;;;;;16.65;10.48;;;10.00;99.90;;;;;;4861119;29;20034;-74
2021/12/27 19:22:04;;;;;;;16.15;9.82;;;10.00;99.90;;;;;;4861589;29;20034;-74
2021/12/27 19:24:30;;;;;;;21.70;10.90;;;9.90;99.90;;;;;;4861215;29;20134;-74
2021/12/27 19:26:56;;;;;;;19.73;9.93;;;9.90;99.90;;;;;;4860886;29;20112;-73
2021/12/27 19:29:21;;;;;;;17.40;10.27;;;9.90;99.90;;;;;;4861314;29;20474;-73
2021/12/27 19:31:47;;;;;;;16.27;9.88;;;9.90;99.90;;;;;;4861013;29;20050;-70
2021/12/27 19:34:13;;;;;;;17.02;10.30;;;9.90;99.90;;;;;;4861054;29;20037;-74
2021/12/27 19:36:38;;;;;;;16.33;9.95;;;9.90;99.90;;;;;;4861253;29;20029;-74
2021/12/27 19:39:05;;;;;;;16.15;10.50;;;9.90;99.90;;;;;;4860857;29;20359;-73
2021/12/27 19:41:33;;;;;;;17.15;10.98;;;9.90;99.90;;;;;;4860272;29;20030;-74
2021/12/27 19:43:59;;;;;;;13.70;8.15;;;9.90;99.90;;;;;;4843214;29;20060;-75
2021/12/27 19:46:25;;;;;;;15.50;9.02;;;9.90;99.90;;;;;;4859669;29;20034;-75
2021/12/27 19:48:51;;;;;;;17.88;9.70;;;9.90;99.90;;;;;;4860735;29;20123;-75
2021/12/27 19:51:17;;;;;;;16.08;10.27;;;9.90;99.90;;;;;;4844232;29;20403;-74
2021/12/27 19:53:43;;;;;;;13.48;10.05;;;10.00;99.90;;;;;;4860806;29;20033;-75
2021/12/27 19:56:09;;;;;;;16.50;9.75;;;9.90;99.90;;;;;;4859880;29;20439;-75
2021/12/27 19:58:35;;;;;;;14.82;9.60;;;9.90;99.90;;;;;;4860298;29;20189;-76
2021/12/27 20:01:01;;;;;;;14.52;8.88;;;9.90;99.90;;;;;;4860383;29;20125;-77
2021/12/27 20:03:27;;;;;;;15.00;9.43;;;9.90;99.90;;;;;;4860476;29;20041;-76
2021/12/27 20:05:52;;;;;;;16.92;10.20;;;9.90;99.90;;;;;;4860771;29;20025;-76
2021/12/27 20:08:18;;;;;;;13.52;9.02;;;9.90;99.90;;;;;;4860598;29;20022;-76
2021/12/27 20:10:44;;;;;;;18.52;9.40;;;9.90;99.90;;;;;;4859488;29;20021;-75
2021/12/27 20:13:11;;;;;;;17.17;10.55;;;9.90;99.90;;;;;;4860016;29;20043;-76
2021/12/27 20:15:42;;;;;;;17.13;10.27;;;9.90;99.90;;;;;;4859827;29;20040;-77
2021/12/27 20:18:09;;;;;;;17.35;10.13;;;9.90;99.90;;;;;;4860501;29;20021;-76
2021/12/27 20:20:35;;;;;;;24.83;14.30;;;9.90;99.90;;;;;;4860466;29;20040;-74
2021/12/27 20:23:02;;;;;;;15.45;10.48;;;9.90;99.90;;;;;;4859478;29;20475;-76
2021/12/27 20:25:29;;;;;;;23.98;10.18;;;9.90;99.90;;;;;;4859594;29;20033;-75
2021/12/27 20:27:55;;;;;;;16.38;10.45;;;9.90;99.90;;;;;;4859575;29;20034;-74
2021/12/27 20:30:21;;;;;;;13.20;9.52;;;10.00;99.90;;;;;;4859720;29;20041;-76
2021/12/27 20:32:48;;;;;;;13.95;8.48;;;10.00;99.90;;;;;;4859673;29;20060;-76
2021/12/27 20:35:14;;;;;;;12.27;7.80;;;10.00;99.90;;;;;;4859258;29;20014;-74
2021/12/27 20:37:40;;;;;;;15.07;8.35;;;10.00;99.90;;;;;;4859443;29;20375;-76
2021/12/27 20:40:07;;;;;;;11.48;7.30;;;10.00;99.90;;;;;;4857934;29;20029;-73
2021/12/27 20:42:34;;;;;;;9.15;6.65;;;10.00;99.90;;;;;;4858687;29;20113;-75
2021/12/27 20:45:03;;;;;;;12.65;7.25;;;10.10;99.90;;;;;;4858068;29;20034;-74
2021/12/27 20:47:29;;;;;;;13.27;7.57;;;10.10;99.90;;;;;;4859131;29;20383;-76
2021/12/27 20:49:55;;;;;;;28.58;16.05;;;10.10;99.90;;;;;;4859796;29;20036;-75
2021/12/27 20:52:20;;;;;;;62.25;32.45;;;10.00;99.90;;;;;;4859878;29;20021;-76
2021/12/27 20:54:46;;;;;;;17.25;11.40;;;10.10;99.90;;;;;;4859514;29;20086;-75
2021/12/27 20:57:12;;;;;;;40.03;17.55;;;10.10;99.90;;;;;;4859576;29;20030;-74
2021/12/27 20:59:38;;;;;;;60.58;29.92;;;10.00;99.90;;;;;;4859942;29;20026;-74
2021/12/27 21:02:04;;;;;;;143.32;71.78;;;10.00;99.90;;;;;;4859523;29;20355;-74
2021/12/27 21:04:30;;;;;;;37.42;19.92;;;10.00;99.90;;;;;;4842865;29;20038;-74
2021/12/27 21:06:58;;;;;;;18.40;11.05;;;10.00;99.90;;;;;;4859145;29;20062;-74
2021/12/27 21:09:24;;;;;;;17.17;10.70;;;10.00;99.90;;;;;;4859488;29;20033;-74
2021/12/27 21:11:50;;;;;;;16.80;10.50;;;10.00;99.90;;;;;;4860923;29;20030;-72
2021/12/27 21:14:16;;;;;;;17.00;10.48;;;9.90;99.90;;;;;;4865271;29;20044;-74
2021/12/27 21:16:42;;;;;;;14.70;10.25;;;9.90;99.90;;;;;;4865517;29;20026;-75
2021/12/27 21:19:08;;;;;;;15.07;8.90;;;9.90;99.90;;;;;;4865358;29;20462;-74
2021/12/27 21:21:37;;;;;;;14.93;9.70;;;9.90;99.90;;;;;;4865147;29;20022;-73
2021/12/27 21:24:04;;;;;;;18.05;9.40;;;9.90;99.90;;;;;;4865201;29;20554;-74
2021/12/27 21:26:34;;;;;;;14.75;8.50;;;9.90;99.90;;;;;;4845526;29;20483;-74
2021/12/27 21:28:59;;;;;;;12.32;8.68;;;9.90;99.90;;;;;;4865303;29;20124;-75
2021/12/27 21:31:25;;;;;;;13.90;9.77;;;10.00;99.90;;;;;;4865084;29;20105;-73
2021/12/27 21:33:51;;;;;;;16.15;9.25;;;10.00;99.90;;;;;;4864865;29;20038;-73
2021/12/27 21:36:19;;;;;;;21.73;9.85;;;10.00;99.90;;;;;;4864637;29;20032;-74
2021/12/27 21:38:49;;;;;;;17.55;10.88;;;10.00;99.90;;;;;;4864928;29;20079;-73
2021/12/27 21:41:15;;;;;;;18.50;10.75;;;10.00;99.90;;;;;;4864696;29;20026;-74
2021/12/27 21:43:41;;;;;;;19.05;9.82;;;10.00;99.90;;;;;;4864898;29;20100;-73
2021/12/27 21:46:07;;;;;;;19.40;11.90;;;10.00;99.90;;;;;;4864988;29;20025;-75
2021/12/27 21:48:33;;;;;;;16.73;9.88;;;10.00;99.90;;;;;;4865464;29;20041;-76
2021/12/27 21:50:59;;;;;;;19.17;11.43;;;10.00;99.90;;;;;;4865402;29;20383;-75
2021/12/27 21:53:24;;;;;;;14.85;10.10;;;10.00;99.90;;;;;;4865499;29;20034;-75
2021/12/27 21:55:50;;;;;;;15.45;9.90;;;10.00;99.90;;;;;;4864816;29;20090;-74
2021/12/27 21:58:16;;;;;;;17.13;10.35;;;10.00;99.90;;;;;;4865449;29;20030;-73
2021/12/27 22:00:44;;;;;;;17.13;11.65;;;10.00;99.90;;;;;;4865481;29;20049;-73
2021/12/27 22:03:11;;;;;;;18.30;11.48;;;9.90;99.90;;;;;;4865019;29;20090;-74
2021/12/27 22:05:37;;;;;;;17.20;12.10;;;9.90;99.90;;;;;;4864308;29;20032;-73
2021/12/27 22:08:03;;;;;;;18.70;11.93;;;9.80;99.90;;;;;;4864618;29;20033;-75
2021/12/27 22:10:30;;;;;;;19.13;11.32;;;9.90;99.90;;;;;;4864366;29;20053;-74
2021/12/27 22:12:57;;;;;;;16.10;11.27;;;9.80;99.90;;;;;;4864386;29;20064;-76
2021/12/27 22:15:24;;;;;;;25.15;11.93;;;9.80;99.90;;;;;;4864690;29;20086;-74
2021/12/27 22:17:50;;;;;;;25.45;12.82;;;9.70;99.90;;;;;;4865243;29;20428;-75
2021/12/27 22:20:16;;;;;;;24.48;15.10;;;9.70;99.90;;;;;;4864830;29;20077;-72
2021/12/27 22:22:42;;;;;;;24.30;15.40;;;9.70;99.90;;;;;;4864573;29;20475;-74
2021/12/27 22:25:09;;;;;;;21.13;14.95;;;9.70;99.90;;;;;;4862263;29;20132;-71
2021/12/27 22:27:35;;;;;;;20.10;14.10;;;9.80;99.90;;;;;;4862128;29;20436;-73
2021/12/27 22:30:03;;;;;;;19.67;13.55;;;9.80;99.90;;;;;;4862534;29;20037;-73
2021/12/27 22:32:29;;;;;;;22.48;12.82;;;9.80;99.90;;;;;;4862273;29;20491;-73
2021/12/27 22:34:54;;;;;;;21.90;12.98;;;9.80;99.90;;;;;;4861748;29;20093;-73
2021/12/27 22:37:20;;;;;;;17.35;12.52;;;9.90;99.90;;;;;;4861657;29;20036;-71
2021/12/27 22:39:48;;;;;;;17.95;12.27;;;9.90;99.90;;;;;;4862166;29;20030;-74
2021/12/27 22:42:14;;;;;;;18.45;12.20;;;9.90;99.90;;;;;;4861885;29;20112;-75
2021/12/27 22:44:39;;;;;;;18.17;11.93;;;10.00;99.90;;;;;;4861933;29;20056;-75
2021/12/27 22:47:05;;;;;;;17.95;11.80;;;10.00;99.90;;;;;;4861090;29;20030;-71
2021/12/27 22:49:31;;;;;;;24.75;12.93;;;10.00;99.90;;;;;;4862197;29;20032;-73
2021/12/27 22:51:57;;;;;;;18.08;12.82;;;10.00;99.90;;;;;;4862279;29;20029;-70
2021/12/27 22:54:22;;;;;;;16.48;10.45;;;10.00;99.90;;;;;;4862210;29;20037;-76
2021/12/27 22:56:48;;;;;;;24.33;14.63;;;10.10;99.90;;;;;;4862430;29;20025;-75
2021/12/27 22:59:13;;;;;;;25.80;13.80;;;10.10;99.90;;;;;;4861035;29;20121;-75
2021/12/27 23:01:39;;;;;;;21.48;14.93;;;10.10;99.90;;;;;;4862347;29;20050;-71
2021/12/27 23:04:05;;;;;;;22.40;14.65;;;10.00;99.90;;;;;;4862303;29;20041;-74
2021/12/27 23:06:31;;;;;;;25.50;15.30;;;10.00;99.90;;;;;;4862116;29;20050;-76
2021/12/27 23:08:57;;;;;;;22.30;16.00;;;10.00;99.90;;;;;;4862462;29;20120;-73